createdAt,value
2018-12-22T00:00:28.894Z,9.40
2018-12-22T00:03:32.122Z,9.40
2018-12-22T00:06:35.497Z,9.40
2018-12-22T00:09:38.574Z,9.40
2018-12-22T00:12:41.563Z,9.50
2018-12-22T00:15:44.519Z,9.50
2018-12-22T00:18:47.541Z,9.70
2018-12-22T00:21:51.406Z,9.70
2018-12-22T00:24:54.412Z,9.70
2018-12-22T00:27:57.374Z,9.70
2018-12-22T00:31:00.473Z,9.70
2018-12-22T00:34:03.454Z,9.70
2018-12-22T00:37:27.503Z,9.70
2018-12-22T00:40:31.620Z,9.60
2018-12-22T00:43:34.761Z,9.60
2018-12-22T00:46:37.858Z,9.50
2018-12-22T00:49:40.868Z,9.50
2018-12-22T00:52:43.849Z,9.50
2018-12-22T00:55:46.885Z,9.50
2018-12-22T00:58:50.045Z,9.50
2018-12-22T01:01:53.025Z,9.50
2018-12-22T01:04:55.999Z,9.40
2018-12-22T01:07:59.005Z,9.40
2018-12-22T01:11:03.078Z,9.30
2018-12-22T01:14:06.090Z,9.30
2018-12-22T01:17:09.046Z,9.30
2018-12-22T01:20:12.118Z,9.30
2018-12-22T01:23:15.082Z,9.30
2018-12-22T01:26:18.082Z,9.40
2018-12-22T01:29:21.041Z,9.40
2018-12-22T01:32:24.167Z,9.40
2018-12-22T01:35:28.114Z,9.30
2018-12-22T01:38:31.366Z,9.30
2018-12-22T01:41:34.652Z,9.20
2018-12-22T01:44:37.976Z,9.20
2018-12-22T01:47:41.126Z,9.10
2018-12-22T01:50:45.298Z,9.10
2018-12-22T01:53:48.441Z,9.10
2018-12-22T01:56:51.781Z,9.00
2018-12-22T01:59:55.038Z,9.00
2018-12-22T02:02:58.586Z,9.10
2018-12-22T02:06:01.726Z,9.10
2018-12-22T02:09:07.014Z,9.00
2018-12-22T02:12:10.166Z,9.00
2018-12-22T02:15:13.412Z,9.00
2018-12-22T02:18:16.558Z,9.00
2018-12-22T02:21:19.790Z,9.00
2018-12-22T02:24:22.956Z,9.00
2018-12-22T02:27:26.150Z,8.90
2018-12-22T02:30:29.486Z,8.70
2018-12-22T02:33:32.634Z,8.60
2018-12-22T02:36:35.898Z,8.40
2018-12-22T02:39:39.037Z,8.30
2018-12-22T02:42:42.465Z,8.30
2018-12-22T02:45:45.643Z,8.20
2018-12-22T02:48:48.854Z,8.40
2018-12-22T02:51:52.022Z,8.30
2018-12-22T02:54:55.237Z,8.40
2018-12-22T02:57:58.503Z,8.40
2018-12-22T03:01:01.730Z,8.50
2018-12-22T03:04:04.907Z,8.50
2018-12-22T03:07:08.108Z,8.50
2018-12-22T03:10:11.373Z,8.60
2018-12-22T03:13:14.631Z,8.50
2018-12-22T03:16:17.779Z,8.50
2018-12-22T03:19:21.015Z,8.50
2018-12-22T03:22:24.274Z,8.50
2018-12-22T03:25:27.609Z,8.40
2018-12-22T03:28:30.810Z,8.40
2018-12-22T03:31:33.987Z,8.40
2018-12-22T03:34:37.150Z,8.30
2018-12-22T03:37:40.390Z,8.10
2018-12-22T03:40:43.550Z,7.70
2018-12-22T03:43:46.914Z,7.50
2018-12-22T03:46:50.142Z,7.40
2018-12-22T03:49:53.486Z,7.30
2018-12-22T03:52:56.633Z,7.20
2018-12-22T03:56:00.177Z,7.30
2018-12-22T03:59:04.147Z,7.30
2018-12-22T04:02:07.424Z,7.40
2018-12-22T04:05:10.702Z,7.30
2018-12-22T04:08:13.978Z,7.40
2018-12-22T04:11:17.170Z,7.40
2018-12-22T04:14:20.362Z,7.50
2018-12-22T04:17:23.562Z,7.40
2018-12-22T04:20:26.766Z,7.40
2018-12-22T04:23:30.306Z,7.40
2018-12-22T04:26:33.453Z,7.20
2018-12-22T04:29:36.651Z,7.10
2018-12-22T04:32:39.842Z,7.00
2018-12-22T04:35:43.038Z,7.10
2018-12-22T04:38:46.233Z,7.10
2018-12-22T04:41:49.430Z,7.20
2018-12-22T04:44:52.622Z,7.20
2018-12-22T04:47:55.818Z,7.20
2018-12-22T04:50:59.149Z,7.20
2018-12-22T04:54:02.390Z,7.10
2018-12-22T04:57:05.612Z,7.10
2018-12-22T05:00:10.036Z,7.10
2018-12-22T05:03:13.227Z,7.10
2018-12-22T05:06:16.423Z,7.00
2018-12-22T05:09:20.255Z,7.10
2018-12-22T05:12:23.428Z,7.00
2018-12-22T05:15:26.622Z,7.00
2018-12-22T05:18:29.817Z,7.00
2018-12-22T05:21:33.009Z,7.00
2018-12-22T05:24:36.210Z,7.10
2018-12-22T05:27:39.397Z,7.10
2018-12-22T05:30:42.593Z,7.10
2018-12-22T05:33:45.789Z,7.10
2018-12-22T05:36:48.985Z,7.10
2018-12-22T05:39:52.177Z,7.10
2018-12-22T05:42:55.377Z,7.10
2018-12-22T05:45:58.574Z,7.00
2018-12-22T05:49:01.765Z,7.00
2018-12-22T05:52:04.961Z,7.00
2018-12-22T05:55:08.160Z,7.00
2018-12-22T05:58:11.352Z,6.90
2018-12-22T06:01:14.546Z,6.90
2018-12-22T06:04:17.737Z,6.90
2018-12-22T06:07:20.937Z,6.80
2018-12-22T06:10:24.129Z,6.90
2018-12-22T06:13:28.533Z,6.70
2018-12-22T06:16:31.645Z,6.70
2018-12-22T06:19:34.846Z,6.70
2018-12-22T06:22:38.038Z,6.70
2018-12-22T06:25:41.210Z,6.70
2018-12-22T06:28:44.326Z,6.70
2018-12-22T06:31:52.249Z,6.60
2018-12-22T06:34:55.430Z,6.50
2018-12-22T06:37:58.622Z,6.60
2018-12-22T06:41:01.817Z,6.60
2018-12-22T06:44:05.013Z,6.60
2018-12-22T06:47:08.205Z,6.50
2018-12-22T06:50:11.405Z,6.50
2018-12-22T06:53:14.598Z,6.40
2018-12-22T06:56:19.022Z,6.40
2018-12-22T06:59:22.217Z,6.30
2018-12-22T07:02:25.512Z,6.20
2018-12-22T07:05:28.849Z,6.20
2018-12-22T07:08:32.034Z,6.20
2018-12-22T07:11:35.201Z,6.30
2018-12-22T07:14:38.498Z,6.40
2018-12-22T07:17:41.694Z,6.40
2018-12-22T07:20:44.922Z,6.40
2018-12-22T07:23:48.082Z,6.40
2018-12-22T07:26:51.430Z,6.50
2018-12-22T07:29:54.579Z,6.50
2018-12-22T07:32:57.805Z,6.50
2018-12-22T07:36:00.973Z,6.40
2018-12-22T07:39:06.598Z,6.40
2018-12-22T07:42:09.715Z,6.40
2018-12-22T07:45:13.053Z,6.30
2018-12-22T07:48:16.210Z,6.20
2018-12-22T07:51:19.473Z,6.10
2018-12-22T07:54:22.594Z,6.00
2018-12-22T07:57:25.822Z,5.90
2018-12-22T08:00:34.793Z,5.80
2018-12-22T08:03:34.266Z,5.80
2018-12-22T08:06:37.421Z,5.70
2018-12-22T08:09:40.651Z,5.70
2018-12-22T08:12:43.799Z,5.80
2018-12-22T08:15:47.211Z,5.70
2018-12-22T08:18:50.409Z,5.70
2018-12-22T08:21:53.465Z,5.60
2018-12-22T08:24:56.598Z,5.60
2018-12-22T08:27:59.937Z,5.60
2018-12-22T08:31:03.090Z,5.50
2018-12-22T08:34:06.309Z,5.60
2018-12-22T08:37:09.478Z,5.60
2018-12-22T08:40:12.974Z,5.50
2018-12-22T08:43:16.177Z,5.60
2018-12-22T08:46:19.402Z,5.60
2018-12-22T08:49:22.566Z,5.60
2018-12-22T08:52:25.792Z,5.60
2018-12-22T08:55:28.955Z,5.60
2018-12-22T08:58:32.178Z,5.70
2018-12-22T09:01:35.358Z,5.80
2018-12-22T09:04:38.542Z,5.70
2018-12-22T09:07:42.010Z,5.70
2018-12-22T09:10:45.133Z,5.70
2018-12-22T09:13:48.363Z,5.70
2018-12-22T09:16:51.525Z,5.60
2018-12-22T09:19:54.869Z,5.60
2018-12-22T09:22:58.034Z,5.60
2018-12-22T09:26:01.242Z,5.70
2018-12-22T09:29:05.534Z,5.60
2018-12-22T09:32:08.894Z,5.60
2018-12-22T09:35:18.687Z,5.70
2018-12-22T09:38:21.912Z,5.70
2018-12-22T09:41:25.070Z,5.80
2018-12-22T09:44:28.414Z,5.70
2018-12-22T09:47:31.569Z,5.80
2018-12-22T09:50:34.790Z,5.80
2018-12-22T09:53:37.955Z,5.90
2018-12-22T09:56:41.265Z,5.90
2018-12-22T09:59:44.449Z,5.90
2018-12-22T10:02:47.702Z,5.80
2018-12-22T10:05:50.860Z,5.80
2018-12-22T10:08:54.202Z,5.80
2018-12-22T10:11:57.350Z,5.80
2018-12-22T10:15:00.586Z,5.80
2018-12-22T10:18:03.737Z,5.90
2018-12-22T10:21:06.978Z,5.80
2018-12-22T10:24:10.136Z,5.80
2018-12-22T10:27:13.473Z,5.80
2018-12-22T10:30:17.238Z,5.80
2018-12-22T10:33:20.470Z,5.80
2018-12-22T10:36:23.626Z,5.70
2018-12-22T10:39:26.827Z,5.70
2018-12-22T10:42:30.032Z,5.80
2018-12-22T10:45:33.831Z,5.80
2018-12-22T10:48:37.026Z,5.80
2018-12-22T10:51:40.225Z,5.70
2018-12-22T10:54:43.454Z,5.80
2018-12-22T10:57:46.614Z,5.70
2018-12-22T11:00:49.846Z,5.70
2018-12-22T11:03:53.015Z,5.70
2018-12-22T11:06:56.227Z,5.60
2018-12-22T11:09:59.386Z,5.70
2018-12-22T11:13:02.689Z,5.60
2018-12-22T11:16:05.886Z,5.70
2018-12-22T11:19:09.186Z,5.60
2018-12-22T11:22:12.374Z,5.70
2018-12-22T11:25:22.293Z,5.70
2018-12-22T11:28:25.522Z,5.70
2018-12-22T11:31:34.964Z,5.70
2018-12-22T11:34:33.958Z,5.70
2018-12-22T11:37:37.155Z,5.70
2018-12-22T11:40:40.354Z,5.60
2018-12-22T11:43:43.548Z,5.50
2018-12-22T11:46:47.050Z,5.60
2018-12-22T11:49:50.254Z,5.60
2018-12-22T11:52:53.535Z,5.70
2018-12-22T11:55:56.747Z,5.70
2018-12-22T11:58:59.917Z,5.90
2018-12-22T12:02:09.670Z,5.90
2018-12-22T12:05:10.421Z,6.20
2018-12-22T12:08:15.581Z,6.30
2018-12-22T12:11:18.761Z,6.50
2018-12-22T12:14:21.953Z,6.40
2018-12-22T12:18:34.982Z,6.40
2018-12-22T12:21:38.164Z,6.40
2018-12-22T12:24:41.357Z,6.30
2018-12-22T12:27:44.565Z,6.20
2018-12-22T12:30:47.762Z,6.10
2018-12-22T12:33:50.958Z,6.00
2018-12-22T12:36:54.170Z,5.90
2018-12-22T12:39:57.349Z,5.80
2018-12-22T12:43:00.542Z,5.80
2018-12-22T12:46:03.749Z,5.80
2018-12-22T12:49:06.938Z,5.70
2018-12-22T12:52:10.131Z,5.70
2018-12-22T12:55:13.325Z,5.70
2018-12-22T12:58:16.521Z,5.70
2018-12-22T13:01:19.718Z,5.60
2018-12-22T13:04:22.914Z,5.60
2018-12-22T13:07:26.108Z,5.60
2018-12-22T13:10:29.297Z,5.70
2018-12-22T13:13:46.659Z,5.70
2018-12-22T13:16:49.822Z,5.80
2018-12-22T13:19:53.047Z,5.80
2018-12-22T13:22:56.210Z,5.70
2018-12-22T13:25:59.401Z,5.70
2018-12-22T13:29:02.646Z,5.70
2018-12-22T13:32:09.572Z,5.60
2018-12-22T13:35:11.186Z,5.60
2018-12-22T13:38:14.337Z,5.60
2018-12-22T13:41:17.562Z,5.60
2018-12-22T13:44:20.841Z,5.50
2018-12-22T13:47:24.033Z,5.40
2018-12-22T13:50:27.708Z,5.40
2018-12-22T13:53:30.938Z,5.40
2018-12-22T13:56:34.478Z,5.30
2018-12-22T13:59:37.622Z,5.30
2018-12-22T14:02:41.658Z,5.30
2018-12-22T14:05:45.469Z,5.30
2018-12-22T14:08:48.677Z,5.20
2018-12-22T14:11:51.847Z,5.10
2018-12-22T14:14:55.042Z,5.10
2018-12-22T14:18:20.357Z,5.10
2018-12-22T14:21:23.548Z,5.10
2018-12-22T14:24:36.810Z,5.10
2018-12-22T14:27:40.079Z,5.20
2018-12-22T14:30:43.321Z,5.10
2018-12-22T14:33:46.462Z,5.10
2018-12-22T14:36:49.723Z,5.10
2018-12-22T14:39:52.849Z,5.00
2018-12-22T14:42:56.076Z,4.90
2018-12-22T14:45:59.241Z,4.90
2018-12-22T14:49:02.438Z,4.90
2018-12-22T14:52:06.250Z,4.90
2018-12-22T14:55:10.468Z,4.90
2018-12-22T14:58:18.026Z,4.90
2018-12-22T15:01:21.170Z,4.90
2018-12-22T15:04:24.350Z,4.80
2018-12-22T15:07:27.522Z,4.80
2018-12-22T15:10:30.748Z,4.80
2018-12-22T15:13:34.042Z,4.80
2018-12-22T15:16:37.236Z,4.70
2018-12-22T15:19:40.430Z,4.70
2018-12-22T15:22:43.654Z,4.70
2018-12-22T15:25:46.822Z,4.70
2018-12-22T15:28:50.030Z,4.70
2018-12-22T15:31:53.215Z,4.70
2018-12-22T15:34:56.406Z,4.70
2018-12-22T15:37:59.599Z,4.70
2018-12-22T15:41:02.898Z,4.80
2018-12-22T15:44:06.096Z,4.70
2018-12-22T15:47:09.286Z,4.70
2018-12-22T15:50:14.903Z,4.70
2018-12-22T15:53:18.035Z,4.70
2018-12-22T15:56:21.226Z,4.70
2018-12-22T15:59:24.425Z,4.70
2018-12-22T16:02:30.774Z,4.70
2018-12-22T16:05:33.914Z,4.70
2018-12-22T16:08:37.110Z,4.70
2018-12-22T16:11:40.305Z,4.60
2018-12-22T16:14:43.502Z,4.60
2018-12-22T16:17:46.698Z,4.60
2018-12-22T16:20:49.891Z,4.60
2018-12-22T16:23:53.086Z,4.60
2018-12-22T16:26:56.282Z,4.60
2018-12-22T16:29:59.474Z,4.70
2018-12-22T16:33:02.670Z,4.60
2018-12-22T16:36:05.866Z,4.60
2018-12-22T16:39:09.061Z,4.50
2018-12-22T16:42:12.234Z,4.60
2018-12-22T16:45:15.968Z,4.50
2018-12-22T16:48:21.489Z,4.50
2018-12-22T16:51:24.631Z,4.50
2018-12-22T16:54:27.802Z,4.50
2018-12-22T16:57:31.682Z,4.40
2018-12-22T17:00:39.344Z,4.40
2018-12-22T17:03:42.690Z,4.60
2018-12-22T17:06:45.909Z,4.50
2018-12-22T17:09:49.105Z,4.40
2018-12-22T17:12:52.297Z,4.40
2018-12-22T17:15:58.053Z,4.60
2018-12-22T17:19:01.261Z,4.60
2018-12-22T17:22:28.506Z,4.50
2018-12-22T17:25:39.226Z,4.40
2018-12-22T17:28:42.482Z,4.50
2018-12-22T17:31:45.670Z,4.40
2018-12-22T17:34:48.866Z,4.40
2018-12-22T17:37:52.474Z,4.40
2018-12-22T17:40:57.149Z,4.30
2018-12-22T17:44:00.294Z,4.30
2018-12-22T17:47:03.638Z,4.40
2018-12-22T17:50:06.790Z,4.30
2018-12-22T17:53:11.042Z,4.30
2018-12-22T17:56:14.198Z,4.30
2018-12-22T17:59:19.098Z,4.40
2018-12-22T18:02:22.329Z,4.30
2018-12-22T18:05:25.882Z,4.30
2018-12-22T18:08:29.041Z,4.30
2018-12-22T18:11:33.794Z,4.20
2018-12-22T18:14:36.957Z,4.20
2018-12-22T18:17:40.201Z,4.20
2018-12-22T18:20:43.450Z,4.10
2018-12-22T18:23:46.894Z,4.20
2018-12-22T18:26:51.009Z,4.10
2018-12-22T18:29:55.250Z,4.10
2018-12-22T18:32:58.906Z,4.10
2018-12-22T18:36:03.574Z,4.10
2018-12-22T18:39:07.492Z,4.10
2018-12-22T18:42:11.353Z,4.20
2018-12-22T18:45:14.771Z,4.20
2018-12-22T18:48:18.237Z,4.20
2018-12-22T18:51:21.909Z,4.20
2018-12-22T18:54:25.582Z,4.10
2018-12-22T18:57:29.265Z,4.10
2018-12-22T19:00:33.795Z,4.10
2018-12-22T19:03:44.530Z,4.10
2018-12-22T19:06:43.050Z,4.10
2018-12-22T19:09:48.394Z,4.10
2018-12-22T19:12:51.731Z,4.10
2018-12-22T19:15:55.127Z,4.00
2018-12-22T19:18:58.654Z,3.90
2018-12-22T19:22:02.037Z,3.90
2018-12-22T19:25:05.859Z,3.80
2018-12-22T19:28:09.335Z,3.80
2018-12-22T19:31:13.000Z,3.80
2018-12-22T19:34:16.989Z,3.70
2018-12-22T19:37:20.270Z,3.70
2018-12-22T19:40:24.037Z,3.70
2018-12-22T19:43:27.582Z,3.60
2018-12-22T19:46:30.921Z,3.60
2018-12-22T19:49:34.190Z,3.60
2018-12-22T19:52:37.575Z,3.60
2018-12-22T19:55:40.722Z,3.60
2018-12-22T19:58:44.070Z,3.60
2018-12-22T20:01:47.193Z,3.60
2018-12-22T20:04:50.337Z,3.60
2018-12-22T20:07:53.485Z,3.60
2018-12-22T20:10:57.992Z,3.60
2018-12-22T20:14:01.365Z,3.70
2018-12-22T20:17:05.214Z,3.70
2018-12-22T20:20:09.293Z,3.70
2018-12-22T20:23:12.486Z,3.70
2018-12-22T20:26:15.755Z,3.60
2018-12-22T20:29:19.089Z,3.70
2018-12-22T20:32:22.142Z,3.70
2018-12-22T20:35:25.383Z,3.60
2018-12-22T20:38:28.530Z,3.70
2018-12-22T20:41:31.882Z,3.70
2018-12-22T20:44:35.021Z,3.60
2018-12-22T20:47:38.431Z,3.60
2018-12-22T20:50:41.594Z,3.60
2018-12-22T20:53:45.087Z,3.60
2018-12-22T20:56:48.417Z,3.70
2018-12-22T20:59:51.818Z,3.60
2018-12-22T21:05:03.429Z,3.60
2018-12-22T21:08:06.962Z,3.60
2018-12-22T21:11:10.197Z,3.50
2018-12-22T21:14:13.326Z,3.40
2018-12-22T21:17:16.506Z,3.40
2018-12-22T21:20:19.790Z,3.40
2018-12-22T21:23:23.011Z,3.40
2018-12-22T21:26:26.197Z,3.30
2018-12-22T21:29:29.502Z,3.30
2018-12-22T21:32:32.793Z,3.30
2018-12-22T21:35:36.188Z,3.20
2018-12-22T21:38:39.386Z,3.20
2018-12-22T21:41:42.585Z,3.20
2018-12-22T21:44:45.877Z,3.10
2018-12-22T21:47:49.101Z,3.10
2018-12-22T21:50:52.289Z,3.10
2018-12-22T21:53:56.245Z,3.10
2018-12-22T21:56:59.593Z,3.10
2018-12-22T22:00:02.774Z,3.00
2018-12-22T22:03:06.223Z,2.90
2018-12-22T22:06:09.451Z,2.80
2018-12-22T22:09:12.640Z,2.70
2018-12-22T22:12:15.627Z,2.70
2018-12-22T22:15:18.605Z,2.60
2018-12-22T22:18:21.871Z,2.60
2018-12-22T22:21:25.201Z,2.60
2018-12-22T22:24:28.555Z,2.60
2018-12-22T22:27:31.701Z,2.50
2018-12-22T22:30:34.714Z,2.60
2018-12-22T22:33:37.743Z,2.60
2018-12-22T22:36:40.834Z,2.60
2018-12-22T22:39:43.903Z,2.60
2018-12-22T22:42:46.921Z,2.70
2018-12-22T22:45:49.990Z,2.70
2018-12-22T22:48:53.535Z,2.70
2018-12-22T22:51:56.722Z,2.80
2018-12-22T22:54:59.906Z,2.70
2018-12-22T22:58:02.862Z,2.70
2018-12-22T23:01:05.867Z,2.70
2018-12-22T23:04:08.831Z,2.80
2018-12-22T23:07:11.861Z,2.70
2018-12-22T23:10:14.831Z,2.70
2018-12-22T23:13:17.878Z,2.70
2018-12-22T23:16:20.934Z,2.70
2018-12-22T23:19:24.159Z,2.70
2018-12-22T23:22:27.215Z,2.70
2018-12-22T23:25:31.544Z,2.70
2018-12-22T23:28:36.330Z,2.70
2018-12-22T23:31:39.558Z,2.80
2018-12-22T23:34:43.709Z,2.80
2018-12-22T23:37:46.774Z,2.80
2018-12-22T23:40:49.768Z,2.80
2018-12-22T23:43:52.847Z,2.80
2018-12-22T23:46:55.806Z,2.90
2018-12-22T23:49:58.760Z,2.90
2018-12-22T23:53:01.718Z,2.90
2018-12-22T23:56:04.698Z,2.90
2018-12-22T23:59:07.722Z,2.90
